Terminal Aerodrome Forecast
Issued by NWS

Home | Current Version | Previous Version | Text Only | Print | Product List | Glossary On
Versions: 1 2 3 4 5 6 7 8 9 10 11 12 13
171
FTUS41 KBTV 252007 AAA
TAFMSS
TAF AMD
KMSS 252007Z 2520/2618 08012G21KT 6SM -RA BR OVC060
     FM260500 06011G17KT 3SM -RA BR OVC015
     FM261000 06010G17KT P6SM VCSH OVC010=

USA.gov is the U.S. government's official web portal to all federal, state and local government web resources and services.